Portada
METAR-TAF:

METAR-TAF

Aeroports :

Aeroport de Can Tho

Cần Thơ, Vietnam

latitud: 10-05-07N, longitud: 105-42-43E, altitud: 3 m

Observació

L'informe es va fer fa 44 minuts, a les 15:00 UTC
Vent 3 kt del Sud-Oest
Temperatura 26°C
Humitat 94%
Pressió 1009 hPa
Visibilitat: 8000 m
Escasses núvols a una alçada de 1500 ft

METAR: VVCT 241500Z 23003KT 8000 FEW015 26/25 Q1009 NOSIG

Hora: 22:44 (15:44 UTC)

Pronòstic

L'informe es va fer fa 4 hores i 44 minuts, a les 11:00 UTC
Pronòstic vàlid del 24 a les 12 UTC al 25 a les 12 UTC
Vent 4 kt del Oest
Visibilitat 10 km o més
Núvols disperses a una alçada de 1500 ft

TAF: VVCT 241100Z 2412/2512 26004KT 9999 SCT015

Observacions i pronòstics meteorològics de més de 4000 aeroports (METAR i TAF).

Les estacions disponibles són els punts grocs i vermells al mapa.

Posi el ratolí al punt desitjat per veure el nom de l'estació.

Feu clic per veure les observacions i els pronòstics meteorològics.

Per canviar el mapa: feu clic els botons verds amb una creu de color negre per apropar; al botó verd amb un guió per allunyar la imatge; o en les fletxes verdes per a mapes adjacents.


METAR-TAF: